Time;durP1;ratioP1;P1;durP2;ratioP2;P2;SDS_P1;SDS_P2;PMS_P1;PMS_P2;Temp;Humidity;BMP_temperature;BMP_pressure;BME280_temperature;BME280_humidity;BME280_pressure;Samples;Min_cycle;Max_cycle;Signal;HPM_P1;HPM_P2
2022/07/31 00:02:06;;;;;;;7.90;5.40;;;19.70;25.90;;;;;;5046828;28;20482;-58
2022/07/31 00:04:33;;;;;;;6.43;4.60;;;19.60;26.00;;;;;;5051008;28;20457;-56
2022/07/31 00:07:00;;;;;;;6.77;5.43;;;19.60;26.00;;;;;;5049043;28;20469;-56
2022/07/31 00:09:28;;;;;;;7.10;4.93;;;19.50;26.20;;;;;;5045546;28;20462;-56
2022/07/31 00:11:55;;;;;;;7.07;4.90;;;19.50;25.80;;;;;;5046743;28;20949;-57
2022/07/31 00:14:22;;;;;;;7.27;4.80;;;19.50;26.40;;;;;;5053834;28;20487;-56
2022/07/31 00:16:50;;;;;;;6.77;5.57;;;19.40;26.40;;;;;;5056531;28;20545;-55
2022/07/31 00:19:17;;;;;;;8.63;5.83;;;19.40;26.90;;;;;;5049595;28;21012;-57
2022/07/31 00:21:44;;;;;;;9.77;5.90;;;19.30;27.00;;;;;;5057810;28;20523;-56
2022/07/31 00:24:10;;;;;;;17.77;6.63;;;19.20;27.50;;;;;;5052557;28;20458;-57
2022/07/31 00:26:37;;;;;;;9.27;7.17;;;19.20;27.30;;;;;;5049206;28;20462;-54
2022/07/31 00:29:04;;;;;;;9.20;6.73;;;19.20;26.90;;;;;;5050268;28;20524;-56
2022/07/31 00:31:31;;;;;;;7.17;5.60;;;19.20;26.90;;;;;;5053901;28;20466;-57
2022/07/31 00:33:59;;;;;;;9.03;6.77;;;19.30;27.00;;;;;;5049233;28;20486;-57
2022/07/31 00:36:25;;;;;;;7.83;6.07;;;19.20;27.10;;;;;;5055089;28;20458;-54
2022/07/31 00:38:52;;;;;;;7.07;5.73;;;19.20;27.10;;;;;;5045248;28;20462;-56
2022/07/31 00:41:19;;;;;;;6.90;5.70;;;19.10;27.30;;;;;;5052777;28;20442;-56
2022/07/31 00:43:46;;;;;;;7.77;6.10;;;19.10;27.50;;;;;;5052451;28;20470;-56
2022/07/31 00:46:12;;;;;;;8.03;5.70;;;19.10;27.60;;;;;;5057913;28;20461;-56
2022/07/31 00:48:39;;;;;;;6.60;5.10;;;19.10;27.70;;;;;;5047852;28;20466;-56
2022/07/31 00:51:07;;;;;;;7.50;6.20;;;19.10;27.90;;;;;;5049340;28;20473;-56
2022/07/31 00:53:34;;;;;;;7.33;6.00;;;19.00;28.20;;;;;;5040917;28;20485;-53
2022/07/31 00:56:01;;;;;;;6.50;5.20;;;19.00;28.30;;;;;;5049984;28;20462;-56
2022/07/31 00:58:27;;;;;;;8.40;5.87;;;19.00;28.00;;;;;;5049210;28;20462;-56
2022/07/31 01:00:54;;;;;;;8.13;6.20;;;18.90;28.00;;;;;;5049044;28;20466;-55
2022/07/31 01:03:21;;;;;;;8.47;6.33;;;18.90;28.10;;;;;;5048272;28;20490;-55
2022/07/31 01:05:48;;;;;;;7.47;6.30;;;18.90;28.40;;;;;;5051676;28;20457;-54
2022/07/31 01:08:16;;;;;;;8.67;5.97;;;18.90;28.30;;;;;;5049241;28;20470;-56
2022/07/31 01:10:50;;;;;;;7.53;6.07;;;18.80;28.50;;;;;;5049779;28;20457;-56
2022/07/31 01:13:24;;;;;;;8.93;6.43;;;18.80;28.60;;;;;;5054805;28;20512;-54
2022/07/31 01:15:53;;;;;;;10.40;6.00;;;18.80;28.80;;;;;;5048335;28;20458;-58
2022/07/31 01:18:22;;;;;;;7.30;6.20;;;18.70;28.70;;;;;;5049033;28;20458;-56
2022/07/31 01:20:50;;;;;;;8.57;5.90;;;18.70;28.80;;;;;;5053994;28;20473;-55
2022/07/31 01:23:53;;;;;;;8.40;6.20;;;18.70;29.20;;;;;;5049044;28;20484;-56
2022/07/31 01:26:32;;;;;;;8.10;6.23;;;18.60;29.20;;;;;;5050981;28;20472;-57
2022/07/31 01:29:08;;;;;;;8.47;6.00;;;18.60;29.50;;;;;;5049471;28;20462;-58
2022/07/31 01:31:38;;;;;;;6.90;5.80;;;18.60;29.30;;;;;;5052191;28;20477;-57
2022/07/31 01:34:10;;;;;;;7.90;6.60;;;18.60;29.20;;;;;;5047546;28;20482;-57
2022/07/31 01:36:44;;;;;;;7.83;6.43;;;18.50;29.40;;;;;;5048597;28;20462;-58
2022/07/31 01:39:12;;;;;;;7.77;6.60;;;18.50;29.70;;;;;;5048574;28;20458;-57
2022/07/31 01:41:45;;;;;;;7.93;6.67;;;18.50;29.60;;;;;;5055050;28;20466;-57
2022/07/31 01:44:15;;;;;;;9.03;6.33;;;18.40;29.80;;;;;;5048058;28;20458;-56
2022/07/31 01:46:43;;;;;;;8.53;7.27;;;18.40;30.10;;;;;;5046951;28;20477;-57
2022/07/31 01:49:12;;;;;;;7.53;6.27;;;18.40;30.10;;;;;;5042771;28;20519;-55
2022/07/31 01:51:41;;;;;;;8.57;7.13;;;18.40;30.30;;;;;;5052400;28;20458;-57
2022/07/31 01:54:10;;;;;;;8.13;7.30;;;18.30;30.50;;;;;;5047264;28;20474;-57
2022/07/31 01:56:38;;;;;;;10.17;7.10;;;18.30;30.80;;;;;;5047925;28;20466;-58
2022/07/31 01:59:06;;;;;;;11.10;7.30;;;18.30;30.80;;;;;;5052735;28;20466;-56
2022/07/31 02:01:37;;;;;;;8.37;7.37;;;18.20;31.20;;;;;;5048655;28;20874;-54
2022/07/31 02:04:05;;;;;;;10.17;7.37;;;18.20;31.30;;;;;;5051015;28;20481;-56
2022/07/31 02:06:32;;;;;;;7.83;6.87;;;18.20;31.10;;;;;;5048488;28;20467;-56
2022/07/31 02:09:00;;;;;;;8.87;6.73;;;18.10;31.30;;;;;;5041234;28;20466;-56
2022/07/31 02:11:27;;;;;;;7.90;6.93;;;18.10;31.80;;;;;;5051576;28;20466;-56
2022/07/31 02:13:56;;;;;;;8.70;7.47;;;18.10;32.00;;;;;;5047302;28;20484;-57
2022/07/31 02:16:26;;;;;;;9.60;7.57;;;18.00;32.30;;;;;;5047981;28;20462;-56
2022/07/31 02:18:57;;;;;;;10.07;8.20;;;18.10;32.80;;;;;;5047891;28;20455;-56
2022/07/31 02:21:24;;;;;;;9.83;8.10;;;18.00;33.20;;;;;;5056072;28;20473;-54
2022/07/31 02:23:51;;;;;;;10.80;8.43;;;18.00;32.80;;;;;;5052101;28;20506;-56
2022/07/31 02:26:19;;;;;;;10.10;8.87;;;18.00;32.90;;;;;;5048445;28;20489;-57
2022/07/31 02:28:48;;;;;;;7.77;6.97;;;18.00;32.70;;;;;;5046655;28;20537;-56
2022/07/31 02:31:16;;;;;;;10.30;8.53;;;17.90;32.70;;;;;;5045669;28;20474;-55
2022/07/31 02:33:46;;;;;;;10.43;8.17;;;17.90;32.90;;;;;;5053969;28;20517;-56
2022/07/31 02:36:16;;;;;;;9.43;8.33;;;17.90;32.90;;;;;;5048272;28;20462;-56
2022/07/31 02:38:44;;;;;;;10.60;9.50;;;17.90;33.00;;;;;;5047675;28;20462;-56
2022/07/31 02:41:12;;;;;;;9.50;8.50;;;17.80;33.00;;;;;;5051387;28;20457;-55
2022/07/31 02:43:39;;;;;;;9.57;8.40;;;17.80;33.20;;;;;;5045781;28;20482;-56
2022/07/31 02:46:08;;;;;;;10.87;9.43;;;17.80;33.70;;;;;;5054937;28;20514;-56
2022/07/31 02:48:36;;;;;;;9.63;7.87;;;17.80;33.70;;;;;;5045426;28;20466;-56
2022/07/31 02:51:04;;;;;;;9.80;8.80;;;17.70;33.70;;;;;;5048678;28;20859;-57
2022/07/31 02:53:33;;;;;;;9.73;8.73;;;17.70;34.00;;;;;;5056662;28;20481;-57
2022/07/31 02:56:03;;;;;;;10.50;8.90;;;17.60;33.40;;;;;;5044504;28;20453;-56
2022/07/31 02:58:29;;;;;;;9.70;8.70;;;17.60;33.60;;;;;;5041978;28;20473;-55
2022/07/31 03:01:00;;;;;;;12.23;8.60;;;17.60;33.70;;;;;;5053984;28;20469;-56
2022/07/31 03:03:27;;;;;;;9.90;8.00;;;17.50;33.90;;;;;;5046437;28;20480;-56
2022/07/31 03:05:54;;;;;;;9.40;8.40;;;17.50;34.00;;;;;;5054585;28;20462;-56
2022/07/31 03:08:21;;;;;;;11.97;9.63;;;17.50;33.70;;;;;;5049306;28;20485;-59
2022/07/31 03:10:49;;;;;;;8.90;8.00;;;17.40;33.80;;;;;;5045971;28;20465;-55
2022/07/31 03:13:17;;;;;;;9.47;8.57;;;17.40;34.10;;;;;;5054208;28;20478;-54
2022/07/31 03:15:44;;;;;;;11.03;8.90;;;17.40;34.20;;;;;;5046276;28;21204;-56
2022/07/31 03:18:13;;;;;;;10.80;8.10;;;17.40;34.50;;;;;;5042409;28;20467;-56
2022/07/31 03:20:41;;;;;;;13.97;9.20;;;17.30;34.60;;;;;;5044439;28;20557;-55
2022/07/31 03:23:10;;;;;;;11.67;9.57;;;17.30;34.60;;;;;;5043023;28;20482;-59
2022/07/31 03:25:37;;;;;;;11.60;8.50;;;17.30;35.00;;;;;;5047774;28;20454;-55
2022/07/31 03:28:06;;;;;;;11.63;8.60;;;17.20;35.20;;;;;;5048155;28;20457;-58
2022/07/31 03:30:32;;;;;;;9.60;8.60;;;17.20;35.30;;;;;;5043962;28;20454;-56
2022/07/31 03:33:02;;;;;;;10.23;9.00;;;17.20;35.60;;;;;;5043421;28;20482;-59
2022/07/31 03:35:29;;;;;;;12.80;11.50;;;17.20;36.00;;;;;;5049613;28;20474;-57
2022/07/31 03:37:56;;;;;;;9.60;8.60;;;17.20;35.90;;;;;;5046145;28;20454;-58
2022/07/31 03:40:23;;;;;;;13.80;9.27;;;17.20;36.10;;;;;;5041034;28;20978;-58
2022/07/31 03:42:50;;;;;;;10.37;9.20;;;17.20;36.30;;;;;;5044703;28;20489;-60
2022/07/31 03:45:19;;;;;;;9.73;8.20;;;17.20;36.10;;;;;;5044144;28;20469;-58
2022/07/31 03:47:46;;;;;;;9.63;8.50;;;17.20;36.00;;;;;;5046774;28;20477;-56
2022/07/31 03:50:13;;;;;;;8.63;7.60;;;17.20;35.80;;;;;;5043680;28;20469;-57
2022/07/31 03:52:40;;;;;;;9.87;8.87;;;17.30;35.80;;;;;;5048105;28;20485;-58
2022/07/31 03:55:08;;;;;;;9.57;7.80;;;17.30;35.80;;;;;;5046688;28;21075;-60
2022/07/31 03:57:37;;;;;;;10.63;8.60;;;17.30;36.00;;;;;;5047109;28;20471;-58
2022/07/31 04:00:05;;;;;;;9.70;7.83;;;17.40;35.90;;;;;;5045296;28;20604;-58
2022/07/31 04:02:33;;;;;;;10.80;8.70;;;17.40;35.50;;;;;;5047006;28;20482;-59
2022/07/31 04:04:59;;;;;;;11.00;8.50;;;17.50;35.50;;;;;;5046110;28;20465;-55
2022/07/31 04:07:27;;;;;;;12.03;8.30;;;17.50;35.60;;;;;;5045660;28;20458;-55
2022/07/31 04:09:54;;;;;;;10.00;7.93;;;17.60;35.50;;;;;;5052985;28;20481;-56
2022/07/31 04:12:21;;;;;;;9.23;8.13;;;17.60;35.50;;;;;;5052117;28;21027;-57
2022/07/31 04:14:48;;;;;;;10.43;8.60;;;17.70;35.60;;;;;;5045598;28;20525;-58
2022/07/31 04:17:15;;;;;;;10.13;8.03;;;17.70;35.60;;;;;;5052588;28;20469;-56
2022/07/31 04:19:43;;;;;;;9.60;8.60;;;17.70;35.80;;;;;;5048738;28;20457;-54
2022/07/31 04:22:10;;;;;;;9.63;7.80;;;17.70;35.80;;;;;;5047607;28;20508;-59
2022/07/31 04:24:36;;;;;;;10.63;8.87;;;17.80;35.80;;;;;;5049231;28;20458;-58
2022/07/31 04:27:04;;;;;;;8.83;7.93;;;17.90;35.50;;;;;;5054189;28;20464;-57
2022/07/31 04:29:30;;;;;;;8.40;7.50;;;17.90;35.50;;;;;;5053287;28;20466;-57
2022/07/31 04:31:57;;;;;;;11.20;7.50;;;17.90;35.20;;;;;;5056108;28;20480;-57
2022/07/31 04:34:24;;;;;;;7.70;6.90;;;18.00;34.90;;;;;;5051447;28;20513;-57
2022/07/31 04:36:52;;;;;;;8.00;7.17;;;18.00;34.80;;;;;;5050065;28;20461;-58
2022/07/31 04:39:19;;;;;;;8.37;6.57;;;18.10;34.60;;;;;;5052676;28;20474;-58
2022/07/31 04:41:45;;;;;;;10.37;7.43;;;18.20;34.40;;;;;;5048474;28;21013;-55
2022/07/31 04:44:12;;;;;;;7.33;6.23;;;18.30;34.10;;;;;;5055326;28;20461;-58
2022/07/31 04:46:39;;;;;;;7.50;6.10;;;18.40;33.70;;;;;;5051721;28;20469;-57
2022/07/31 04:49:06;;;;;;;7.33;5.93;;;18.40;33.40;;;;;;5047758;28;20470;-58
2022/07/31 04:51:34;;;;;;;8.43;6.07;;;18.50;33.30;;;;;;5050491;28;20458;-58
2022/07/31 04:54:02;;;;;;;9.07;6.70;;;18.60;33.20;;;;;;5055228;28;20481;-57
2022/07/31 04:56:36;;;;;;;7.83;5.90;;;18.70;33.20;;;;;;5049590;28;21173;-57
2022/07/31 04:59:05;;;;;;;11.90;6.73;;;18.70;32.80;;;;;;5047528;28;20468;-56
2022/07/31 05:01:32;;;;;;;7.30;6.33;;;18.80;32.70;;;;;;5047065;28;20982;-59
2022/07/31 05:03:59;;;;;;;8.53;6.53;;;18.90;32.70;;;;;;5049593;28;20481;-58
2022/07/31 05:06:34;;;;;;;7.07;6.03;;;19.00;32.30;;;;;;5054091;28;20458;-57
2022/07/31 05:09:04;;;;;;;6.63;5.50;;;19.20;31.80;;;;;;5043093;28;20493;-58
2022/07/31 05:11:31;;;;;;;6.77;5.40;;;19.40;31.20;;;;;;5047992;28;20549;-58
2022/07/31 05:14:01;;;;;;;8.90;7.13;;;19.50;30.60;;;;;;5047522;28;20482;-59
2022/07/31 05:16:28;;;;;;;7.27;6.00;;;19.60;30.00;;;;;;5048409;28;20482;-58
2022/07/31 05:18:56;;;;;;;8.17;6.20;;;19.70;29.70;;;;;;5049986;28;20477;-57
2022/07/31 05:21:23;;;;;;;8.87;6.10;;;19.80;29.60;;;;;;5049037;28;20463;-57
2022/07/31 05:23:50;;;;;;;7.80;5.30;;;20.00;29.40;;;;;;5054362;28;20498;-58
2022/07/31 05:26:19;;;;;;;7.03;5.20;;;20.10;29.00;;;;;;5048809;28;20469;-57
2022/07/31 05:28:48;;;;;;;8.40;4.77;;;20.70;28.00;;;;;;5055777;28;21038;-58
2022/07/31 05:31:16;;;;;;;7.37;5.50;;;21.20;26.20;;;;;;5048305;28;20474;-58
2022/07/31 05:33:43;;;;;;;8.43;4.63;;;22.40;24.10;;;;;;5049038;28;20556;-56
2022/07/31 05:36:10;;;;;;;7.83;4.67;;;23.20;19.80;;;;;;5044389;28;20473;-64
2022/07/31 05:38:37;;;;;;;6.60;4.40;;;22.90;19.40;;;;;;5048070;28;20489;-59
2022/07/31 05:41:03;;;;;;;8.10;5.10;;;22.50;19.90;;;;;;5048730;28;20458;-56
2022/07/31 05:43:32;;;;;;;6.17;4.80;;;22.30;20.70;;;;;;5054886;28;20472;-58
2022/07/31 05:45:59;;;;;;;6.17;4.67;;;22.30;20.80;;;;;;5048292;28;20450;-59
2022/07/31 05:48:25;;;;;;;6.20;4.13;;;22.30;21.60;;;;;;5059299;28;20967;-58
2022/07/31 05:50:52;;;;;;;7.27;5.13;;;22.30;21.60;;;;;;5050469;28;20454;-58
2022/07/31 05:53:19;;;;;;;5.43;4.20;;;22.30;20.90;;;;;;5044989;28;20920;-57
2022/07/31 05:55:48;;;;;;;6.30;4.60;;;22.40;20.90;;;;;;5045131;28;20478;-59
2022/07/31 05:58:15;;;;;;;6.87;4.23;;;22.50;20.70;;;;;;5051690;28;20470;-57
2022/07/31 06:00:45;;;;;;;7.83;4.63;;;22.50;20.80;;;;;;5050609;28;20981;-59
2022/07/31 06:03:12;;;;;;;6.73;4.80;;;22.50;20.80;;;;;;5041820;28;20478;-58
2022/07/31 06:05:39;;;;;;;8.67;4.40;;;22.70;20.10;;;;;;5048532;28;20548;-57
2022/07/31 06:08:08;;;;;;;6.13;4.63;;;23.00;19.70;;;;;;5055418;28;20449;-58
2022/07/31 06:10:37;;;;;;;7.80;4.40;;;23.50;18.70;;;;;;5048932;28;20489;-59
2022/07/31 06:13:03;;;;;;;5.40;3.63;;;24.00;17.70;;;;;;5041963;28;20478;-57
2022/07/31 06:15:30;;;;;;;5.50;3.87;;;24.20;17.20;;;;;;5049352;28;20478;-59
2022/07/31 06:17:59;;;;;;;7.03;4.23;;;24.40;16.60;;;;;;5056285;28;21182;-59
2022/07/31 06:20:25;;;;;;;6.30;3.90;;;24.90;15.70;;;;;;5048990;28;20832;-58
2022/07/31 06:22:52;;;;;;;5.27;3.40;;;26.40;13.90;;;;;;5047443;28;20474;-56
2022/07/31 06:25:19;;;;;;;6.20;3.47;;;28.60;9.20;;;;;;5046922;28;20457;-57
2022/07/31 06:27:46;;;;;;;5.80;3.60;;;28.60;7.50;;;;;;5047479;28;20469;-59
2022/07/31 06:30:14;;;;;;;5.57;3.70;;;28.10;8.10;;;;;;5049171;28;20454;-58
2022/07/31 06:32:40;;;;;;;4.80;3.20;;;27.50;8.50;;;;;;5051813;28;20465;-58
2022/07/31 06:35:09;;;;;;;4.57;3.00;;;27.30;9.10;;;;;;5048107;28;20500;-58
2022/07/31 06:37:36;;;;;;;6.03;3.30;;;27.20;9.40;;;;;;5045210;28;20540;-57
2022/07/31 06:40:04;;;;;;;5.67;3.17;;;27.10;9.20;;;;;;5053096;28;20465;-58
2022/07/31 06:42:31;;;;;;;5.70;3.20;;;27.00;9.50;;;;;;5048421;28;20480;-58
2022/07/31 06:44:57;;;;;;;6.13;3.00;;;26.90;9.10;;;;;;5046814;28;20793;-57
2022/07/31 06:47:25;;;;;;;5.13;3.17;;;27.10;9.30;;;;;;5052686;28;20456;-59
2022/07/31 06:49:53;;;;;;;5.73;2.93;;;27.60;8.80;;;;;;5052736;28;20458;-57
2022/07/31 06:52:21;;;;;;;5.33;3.03;;;27.90;7.90;;;;;;5048389;28;20481;-59
2022/07/31 06:54:47;;;;;;;5.17;2.93;;;28.10;7.60;;;;;;5047474;28;20458;-58
2022/07/31 06:57:14;;;;;;;5.60;3.17;;;28.50;6.90;;;;;;5043143;28;20508;-57
2022/07/31 06:59:41;;;;;;;4.60;2.67;;;28.70;6.70;;;;;;5054871;28;20947;-58
2022/07/31 07:02:08;;;;;;;4.20;2.10;;;28.70;6.30;;;;;;5046303;28;21013;-59
2022/07/31 07:04:35;;;;;;;4.47;2.80;;;28.90;6.40;;;;;;5045789;28;20454;-57
2022/07/31 07:07:02;;;;;;;6.83;3.47;;;29.10;6.50;;;;;;5051145;28;20465;-58
2022/07/31 07:09:30;;;;;;;6.53;3.17;;;29.60;5.70;;;;;;5048036;28;20460;-59
2022/07/31 07:11:57;;;;;;;6.47;2.40;;;30.00;5.20;;;;;;5045755;28;20881;-58
2022/07/31 07:14:23;;;;;;;4.87;2.80;;;30.10;5.10;;;;;;5047534;28;20857;-58
2022/07/31 07:16:50;;;;;;;4.97;2.33;;;29.90;5.10;;;;;;5044963;28;20498;-58
2022/07/31 07:19:17;;;;;;;4.60;2.37;;;29.60;5.60;;;;;;5048170;28;20458;-58
2022/07/31 07:21:44;;;;;;;4.73;2.70;;;29.40;5.20;;;;;;5046628;28;20552;-58
2022/07/31 07:24:11;;;;;;;4.77;2.67;;;29.20;5.70;;;;;;5046849;28;21236;-59
2022/07/31 07:26:39;;;;;;;6.63;2.47;;;28.90;6.00;;;;;;5051119;28;20988;-58
2022/07/31 07:29:06;;;;;;;4.93;2.60;;;28.70;6.30;;;;;;5049609;28;20481;-57
2022/07/31 07:31:33;;;;;;;4.17;2.10;;;28.50;6.60;;;;;;5047418;28;20466;-59
2022/07/31 07:34:01;;;;;;;5.90;2.50;;;28.50;6.50;;;;;;5045791;28;20485;-59
2022/07/31 07:36:28;;;;;;;5.10;2.60;;;28.60;6.60;;;;;;5043875;28;21244;-59
2022/07/31 07:38:55;;;;;;;4.90;2.10;;;28.70;5.90;;;;;;5044524;28;20458;-58
2022/07/31 07:41:23;;;;;;;4.93;2.60;;;28.80;5.50;;;;;;5052426;28;20497;-62
2022/07/31 07:43:51;;;;;;;7.50;2.80;;;28.90;5.60;;;;;;5052534;28;21013;-60
2022/07/31 07:46:18;;;;;;;6.43;2.63;;;29.30;4.90;;;;;;5043364;28;20982;-58
2022/07/31 07:48:44;;;;;;;4.77;2.40;;;31.00;3.80;;;;;;5056754;28;20881;-58
2022/07/31 07:51:11;;;;;;;4.80;2.20;;;32.90;1.00;;;;;;5050463;28;20472;-59
2022/07/31 07:53:39;;;;;;;4.03;2.07;;;34.80;1.00;;;;;;5046381;28;20492;-59
2022/07/31 07:56:06;;;;;;;7.07;2.20;;;36.30;1.00;;;;;;5044260;28;20956;-58
2022/07/31 07:58:32;;;;;;;3.87;1.97;;;37.00;1.00;;;;;;5045662;28;20462;-58
2022/07/31 08:01:00;;;;;;;4.60;2.07;;;37.40;1.00;;;;;;5048291;28;20836;-59
2022/07/31 08:03:27;;;;;;;6.17;2.13;;;37.10;1.00;;;;;;5044147;28;20488;-61
2022/07/31 08:05:54;;;;;;;3.93;1.80;;;36.90;1.00;;;;;;5045323;28;20481;-61
2022/07/31 08:08:20;;;;;;;3.73;1.60;;;37.10;1.00;;;;;;5042845;28;20465;-61
2022/07/31 08:10:47;;;;;;;5.60;1.90;;;36.90;1.00;;;;;;5048133;28;20460;-63
2022/07/31 08:13:14;;;;;;;5.50;1.97;;;36.20;1.00;;;;;;5049463;28;20492;-59
2022/07/31 08:15:41;;;;;;;5.00;2.27;;;35.60;1.00;;;;;;5047248;28;20477;-57
2022/07/31 08:18:09;;;;;;;3.60;1.77;;;34.90;1.00;;;;;;5045708;28;20458;-56
2022/07/31 08:20:37;;;;;;;4.93;1.90;;;34.20;1.00;;;;;;5048285;28;20467;-56
2022/07/31 08:23:04;;;;;;;5.13;2.40;;;33.50;1.00;;;;;;5047557;28;20478;-58
2022/07/31 08:25:30;;;;;;;4.57;2.10;;;32.90;1.00;;;;;;5042792;28;20846;-57
2022/07/31 08:27:57;;;;;;;5.83;2.07;;;32.40;1.00;;;;;;5043825;28;20476;-59
2022/07/31 08:30:24;;;;;;;5.50;2.53;;;32.10;1.00;;;;;;5046468;28;20473;-58
2022/07/31 08:32:51;;;;;;;4.90;1.93;;;32.40;1.00;;;;;;5043684;28;20493;-58
2022/07/31 08:35:19;;;;;;;3.83;1.70;;;33.60;1.00;;;;;;5044673;28;20469;-57
2022/07/31 08:37:46;;;;;;;4.80;2.00;;;35.10;1.00;;;;;;5044763;28;20574;-58
2022/07/31 08:40:13;;;;;;;4.00;2.00;;;36.00;1.00;;;;;;5042598;28;20519;-58
2022/07/31 08:42:40;;;;;;;5.13;2.17;;;35.80;1.00;;;;;;5045000;28;20482;-57
2022/07/31 08:45:08;;;;;;;4.97;2.27;;;35.70;1.00;;;;;;5044831;28;20523;-57
2022/07/31 08:47:36;;;;;;;5.30;2.50;;;35.50;1.00;;;;;;5047615;28;20469;-59
2022/07/31 08:50:05;;;;;;;5.10;2.03;;;35.80;1.00;;;;;;5044873;28;20465;-57
2022/07/31 08:52:34;;;;;;;4.30;2.00;;;36.60;1.00;;;;;;5043503;28;21001;-59
2022/07/31 08:55:06;;;;;;;4.73;2.00;;;37.50;1.00;;;;;;5041610;28;20458;-58
2022/07/31 08:57:33;;;;;;;7.13;2.10;;;39.20;1.00;;;;;;5045825;28;20865;-58
2022/07/31 08:59:59;;;;;;;4.10;1.60;;;40.20;1.00;;;;;;5041544;28;20469;-59
2022/07/31 09:02:26;;;;;;;4.90;2.17;;;40.80;1.00;;;;;;5043147;28;20508;-57
2022/07/31 09:04:53;;;;;;;4.13;1.80;;;40.70;1.00;;;;;;5044136;28;20473;-58
2022/07/31 09:07:20;;;;;;;4.13;1.60;;;40.30;1.00;;;;;;5055028;28;20493;-60
2022/07/31 09:09:48;;;;;;;5.50;1.97;;;39.40;1.00;;;;;;5045047;28;20469;-57
2022/07/31 09:12:14;;;;;;;4.53;1.80;;;38.50;1.00;;;;;;5043846;28;20481;-56
2022/07/31 09:14:48;;;;;;;4.87;1.50;;;37.70;1.00;;;;;;5046091;28;20474;-62
2022/07/31 09:19:46;;;;;;;5.67;1.90;;;36.10;1.00;;;;;;5041999;28;20518;-56
2022/07/31 09:22:20;;;;;;;4.20;1.90;;;35.50;1.00;;;;;;5036731;28;20485;-56
2022/07/31 09:24:49;;;;;;;4.43;1.93;;;35.00;1.00;;;;;;5039855;28;20459;-57
2022/07/31 09:27:16;;;;;;;4.40;1.90;;;34.50;1.00;;;;;;5038997;28;20465;-58
2022/07/31 09:29:45;;;;;;;4.07;1.63;;;34.10;1.00;;;;;;5043813;28;20552;-57
2022/07/31 09:32:14;;;;;;;5.60;2.27;;;33.80;1.00;;;;;;5037854;28;20489;-57
2022/07/31 09:34:41;;;;;;;3.83;1.90;;;33.40;1.00;;;;;;5040056;28;20466;-60
2022/07/31 09:37:12;;;;;;;4.37;1.70;;;33.10;1.00;;;;;;5039313;28;20489;-56
2022/07/31 09:39:39;;;;;;;4.60;2.00;;;33.30;1.00;;;;;;5037615;28;20463;-55
2022/07/31 09:42:08;;;;;;;5.40;2.07;;;34.60;1.00;;;;;;5038289;28;20492;-57
2022/07/31 09:44:37;;;;;;;5.70;2.40;;;35.40;1.00;;;;;;5037841;28;20492;-57
2022/07/31 09:47:05;;;;;;;4.17;1.63;;;36.40;1.00;;;;;;5039204;28;20458;-57
2022/07/31 09:49:32;;;;;;;5.57;2.23;;;38.50;1.00;;;;;;5041065;28;20469;-63
2022/07/31 09:52:00;;;;;;;3.87;1.80;;;39.30;1.00;;;;;;5040374;28;20474;-62
2022/07/31 09:54:30;;;;;;;6.27;1.87;;;40.00;1.00;;;;;;5039665;28;20549;-56
2022/07/31 09:56:57;;;;;;;5.43;1.43;;;41.00;1.00;;;;;;5037519;28;20493;-59
2022/07/31 09:59:26;;;;;;;4.43;1.47;;;41.90;1.00;;;;;;5038500;28;20462;-57
2022/07/31 10:01:54;;;;;;;4.27;1.77;;;43.60;1.00;;;;;;5039484;28;20481;-58
2022/07/31 10:04:22;;;;;;;4.27;1.83;;;44.50;1.00;;;;;;5035983;28;20463;-58
2022/07/31 10:06:51;;;;;;;6.10;1.90;;;45.30;1.00;;;;;;5034761;28;20842;-58
2022/07/31 10:09:19;;;;;;;5.20;1.87;;;44.70;1.00;;;;;;5035560;28;20458;-58
2022/07/31 10:11:47;;;;;;;4.73;1.70;;;43.20;1.00;;;;;;5039614;28;20981;-57
2022/07/31 10:14:20;;;;;;;6.30;1.87;;;42.10;1.00;;;;;;5038224;28;20470;-58
2022/07/31 10:16:51;;;;;;;6.00;1.80;;;41.40;1.00;;;;;;5045533;28;21009;-57
2022/07/31 10:19:19;;;;;;;4.20;1.77;;;40.90;1.00;;;;;;5038811;28;20473;-58
2022/07/31 10:21:53;;;;;;;8.33;1.97;;;40.50;1.00;;;;;;5042866;28;20470;-58
2022/07/31 10:24:20;;;;;;;4.67;2.00;;;40.00;1.00;;;;;;5039104;28;20470;-57
2022/07/31 10:26:48;;;;;;;4.17;1.97;;;39.50;1.00;;;;;;5042138;28;20462;-57
2022/07/31 10:29:16;;;;;;;5.57;2.03;;;38.80;1.00;;;;;;5040289;28;20474;-57
2022/07/31 10:31:43;;;;;;;4.40;2.13;;;38.00;1.00;;;;;;5037234;28;20478;-57
2022/07/31 10:34:12;;;;;;;4.93;2.27;;;37.20;1.00;;;;;;5040462;28;20461;-57
2022/07/31 10:36:44;;;;;;;5.40;1.93;;;36.70;1.00;;;;;;5037280;28;20516;-56
2022/07/31 10:39:17;;;;;;;3.40;1.60;;;36.40;1.00;;;;;;5037564;28;20455;-57
2022/07/31 10:41:53;;;;;;;6.13;1.90;;;36.40;1.00;;;;;;5036980;28;20836;-56
2022/07/31 10:44:29;;;;;;;4.40;2.30;;;36.30;1.00;;;;;;5036916;28;20612;-57
2022/07/31 10:46:56;;;;;;;3.50;1.30;;;36.30;1.00;;;;;;5044872;28;20462;-58
2022/07/31 10:52:27;;;;;;;3.73;1.50;;;36.20;1.00;;;;;;5059389;27;21085;-58
2022/07/31 10:54:56;;;;;;;6.33;1.60;;;36.20;1.00;;;;;;5053015;28;20951;-58
2022/07/31 10:57:24;;;;;;;3.77;1.60;;;36.10;1.00;;;;;;5053157;28;20540;-59
2022/07/31 10:59:50;;;;;;;3.47;1.60;;;35.80;1.00;;;;;;5050671;28;20461;-57
2022/07/31 11:02:28;;;;;;;5.90;1.87;;;35.50;1.00;;;;;;5072474;28;20491;-58
2022/07/31 11:05:06;;;;;;;3.77;1.83;;;35.30;1.00;;;;;;5073306;28;20503;-57
2022/07/31 11:07:34;;;;;;;3.70;1.30;;;35.10;1.00;;;;;;5077259;28;20472;-59
2022/07/31 11:10:12;;;;;;;5.47;1.73;;;35.00;1.00;;;;;;5074958;28;20473;-57
2022/07/31 11:12:39;;;;;;;3.60;1.43;;;34.90;1.00;;;;;;5082809;28;20591;-58
2022/07/31 11:15:20;;;;;;;3.57;1.57;;;34.90;1.00;;;;;;5075993;28;22847;-57
2022/07/31 11:17:47;;;;;;;3.23;1.20;;;34.80;1.00;;;;;;5077765;28;20505;-59
2022/07/31 11:20:21;;;;;;;3.80;1.67;;;34.70;1.00;;;;;;5076350;28;20856;-57
2022/07/31 11:23:00;;;;;;;3.60;1.43;;;34.50;1.00;;;;;;5079974;28;20537;-58
2022/07/31 11:25:29;;;;;;;4.63;1.40;;;34.20;1.00;;;;;;5075101;28;20465;-58
2022/07/31 11:27:57;;;;;;;4.77;1.83;;;33.80;1.00;;;;;;5079057;28;20475;-59
2022/07/31 11:30:24;;;;;;;4.93;1.90;;;33.50;1.00;;;;;;5075091;28;20515;-59
2022/07/31 11:32:53;;;;;;;3.80;1.30;;;33.40;1.00;;;;;;5075329;28;20485;-57
2022/07/31 11:35:31;;;;;;;3.80;1.40;;;33.10;1.00;;;;;;5081249;28;20475;-58
2022/07/31 11:38:00;;;;;;;4.50;1.43;;;33.00;1.00;;;;;;5080446;28;20881;-59
2022/07/31 11:40:27;;;;;;;3.60;1.50;;;32.80;1.00;;;;;;5074210;28;20450;-58
2022/07/31 11:42:54;;;;;;;3.70;1.50;;;32.70;1.00;;;;;;5074446;28;20861;-59
2022/07/31 11:45:21;;;;;;;4.10;1.50;;;32.70;1.00;;;;;;5078989;28;21922;-59
2022/07/31 11:47:50;;;;;;;4.73;1.30;;;32.70;1.00;;;;;;5079549;28;20470;-59
2022/07/31 11:50:17;;;;;;;3.70;1.40;;;32.80;1.00;;;;;;5074441;28;20962;-58
2022/07/31 11:52:45;;;;;;;3.40;1.20;;;32.80;1.00;;;;;;5076288;28;20492;-58
2022/07/31 11:55:14;;;;;;;3.53;1.40;;;32.80;1.00;;;;;;5082411;28;20460;-58
2022/07/31 11:57:42;;;;;;;4.47;1.43;;;32.80;1.00;;;;;;5073598;28;20472;-59
2022/07/31 12:00:12;;;;;;;3.50;1.20;;;32.80;1.00;;;;;;5079134;28;20468;-57
2022/07/31 12:02:43;;;;;;;4.37;1.77;;;32.80;1.00;;;;;;5070220;28;20895;-58
2022/07/31 12:05:12;;;;;;;5.60;1.60;;;32.80;1.00;;;;;;5068164;28;20475;-58
2022/07/31 12:07:40;;;;;;;4.00;1.60;;;32.60;1.00;;;;;;5067879;28;20529;-56
2022/07/31 12:10:09;;;;;;;4.27;1.50;;;32.40;1.00;;;;;;5071335;28;20469;-58
2022/07/31 12:12:38;;;;;;;3.30;1.30;;;32.30;1.00;;;;;;5071051;28;20477;-58
2022/07/31 12:15:17;;;;;;;3.67;1.20;;;32.20;1.00;;;;;;5070246;28;21928;-55
2022/07/31 12:17:44;;;;;;;4.13;1.47;;;32.20;1.00;;;;;;5065900;28;20833;-57
2022/07/31 12:20:12;;;;;;;4.00;1.37;;;32.20;1.00;;;;;;5067667;28;20457;-58
2022/07/31 12:22:38;;;;;;;3.83;1.63;;;32.30;1.00;;;;;;5067494;28;20577;-58
2022/07/31 12:25:08;;;;;;;3.33;1.30;;;32.30;1.00;;;;;;5068991;28;20484;-56
2022/07/31 12:27:36;;;;;;;3.40;1.30;;;32.30;1.00;;;;;;5072257;28;20461;-56
2022/07/31 12:30:14;;;;;;;4.20;1.77;;;32.20;1.00;;;;;;5063275;28;20465;-57
2022/07/31 12:32:41;;;;;;;4.10;1.53;;;32.20;1.00;;;;;;5063266;28;20476;-57
2022/07/31 12:35:08;;;;;;;4.53;1.90;;;32.30;1.00;;;;;;5065436;28;20524;-56
2022/07/31 12:37:43;;;;;;;3.80;1.63;;;32.40;1.00;;;;;;5067519;28;20769;-58
2022/07/31 12:40:21;;;;;;;5.37;1.73;;;32.40;1.00;;;;;;5062644;28;20548;-59
2022/07/31 12:42:49;;;;;;;4.63;1.60;;;32.30;1.00;;;;;;5064685;28;20480;-57
2022/07/31 12:45:15;;;;;;;4.13;1.50;;;32.10;1.00;;;;;;5064475;28;21016;-58
2022/07/31 12:47:42;;;;;;;4.30;1.70;;;31.90;1.00;;;;;;5066524;28;20967;-57
2022/07/31 12:50:09;;;;;;;3.60;1.40;;;31.80;1.00;;;;;;5064913;28;21049;-59
2022/07/31 12:52:36;;;;;;;4.43;1.57;;;31.70;1.00;;;;;;5066265;28;20488;-60
2022/07/31 12:55:04;;;;;;;4.67;1.73;;;31.70;1.00;;;;;;5067273;28;20933;-59
2022/07/31 12:57:30;;;;;;;3.70;1.50;;;31.70;1.00;;;;;;5063446;28;20461;-59
2022/07/31 12:59:58;;;;;;;5.63;1.50;;;31.70;1.00;;;;;;5066982;28;20457;-60
2022/07/31 13:02:26;;;;;;;4.50;1.33;;;31.70;1.00;;;;;;5069389;28;20485;-60